^^
Meteo Knjazevac Station Historical Data
Daily Summary for June 21, 2022 Units:  Metric    English   Both
Daily Weekly Monthly Yearly Custom
  High: Low: Average:
Temperature: 25.4 °C 13.5 °C 16.9 °C
Dew Point: 19.3 °C 12.1 °C 14.3 °C
Humidity: 93% 68% 85%
Wind Speed: 14.5km/h 0km/h 3.4km/h
Wind Gust: 22.5km/h - -
Wind- - SW
Pressure: 1014.1 hPa 1013.1 hPa -
Precipitation: 0.25 mm    
Historical Graphs
 
 
Tabular Data for June 21, 2022
Time Temperature Dew Point Pressure Wind Wind Speed Wind Gust Humidity Rainfall Rate (Hourly) solar Conditions
00:00 16.8 °C 14.1 °C 1013.4 hPa WNW 4.8 km/h 8 km/h 84% 0 mm 0 W/m2
00:10 16.7 °C 14 °C 1013.4 hPa West 1.6 km/h 6.4 km/h 84% 0 mm 0 W/m2
00:20 16.6 °C 13.8 °C 1013.8 hPa Calm   3.2 km/h 84% 0 mm 0 W/m2
00:30 16.4 °C 13.7 °C 1013.4 hPa Calm   3.2 km/h 84% 0 mm 0 W/m2
00:40 16.3 °C 13.8 °C 1013.8 hPa WNW 1.6 km/h 4.8 km/h 85% 0 mm 0 W/m2
00:50 16.1 °C 13.6 °C 1013.4 hPa Calm   3.2 km/h 85% 0 mm 0 W/m2
01:00 15.7 °C 13.4 °C 1013.4 hPa West 1.6 km/h 6.4 km/h 86% 0 mm 0 W/m2
01:10 15.4 °C 13.1 °C 1013.4 hPa NW 1.6 km/h 4.8 km/h 86% 0 mm 0 W/m2
01:20 15.3 °C 13.3 °C 1013.4 hPa WNW 1.6 km/h 9.7 km/h 88% 0 mm 0 W/m2
01:30 15.2 °C 13.2 °C 1013.4 hPa WNW 1.6 km/h 9.7 km/h 88% 0 mm 0 W/m2
01:40 15 °C 13 °C 1013.8 hPa West 3.2 km/h 6.4 km/h 88% 0 mm 0 W/m2
01:50 14.9 °C 13.1 °C 1013.4 hPa West 3.2 km/h 6.4 km/h 89% 0 mm 0 W/m2
02:00 14.7 °C 12.9 °C 1013.4 hPa West 1.6 km/h 6.4 km/h 89% 0 mm 0 W/m2
02:10 14.5 °C 12.7 °C 1013.8 hPa WNW 3.2 km/h 8 km/h 89% 0 mm 0 W/m2
02:20 14.4 °C 12.8 °C 1013.8 hPa WNW 3.2 km/h 4.8 km/h 90% 0 mm 0 W/m2
02:30 14.3 °C 12.7 °C 1013.8 hPa Calm   4.8 km/h 90% 0 mm 0 W/m2
02:40 14.2 °C 12.6 °C 1013.8 hPa Calm   4.8 km/h 90% 0 mm 0 W/m2
02:50 14 °C 12.4 °C 1013.8 hPa West 3.2 km/h 6.4 km/h 90% 0 mm 0 W/m2
03:00 13.9 °C 12.4 °C 1013.8 hPa West 3.2 km/h 8 km/h 91% 0 mm 0 W/m2
03:10 13.9 °C 12.4 °C 1013.8 hPa West 1.6 km/h 6.4 km/h 91% 0 mm 0 W/m2
03:20 13.8 °C 12.2 °C 1013.8 hPa WNW 1.6 km/h 4.8 km/h 90% 0 mm 0 W/m2
03:30 13.7 °C 12.3 °C 1013.8 hPa NW 1.6 km/h 4.8 km/h 91% 0 mm 0 W/m2
03:40 13.8 °C 12.7 °C 1013.8 hPa NNW 1.6 km/h 6.4 km/h 93% 0 mm 0 W/m2
03:50 13.8 °C 12.7 °C 1013.8 hPa WNW 3.2 km/h 8 km/h 93% 0 mm 0 W/m2
04:00 13.8 °C 12.4 °C 1013.4 hPa Calm   4.8 km/h 91% 0 mm 0 W/m2
04:10 13.7 °C 12.3 °C 1013.4 hPa Calm   4.8 km/h 91% 0 mm 0 W/m2
04:20 13.6 °C 12.2 °C 1013.4 hPa NW 1.6 km/h 3.2 km/h 91% 0 mm 0 W/m2
04:30 13.5 °C 12.1 °C 1013.4 hPa NW 1.6 km/h 4.8 km/h 91% 0 mm 0 W/m2
04:40 13.5 °C 12.1 °C 1013.4 hPa NW 1.6 km/h 3.2 km/h 91% 0 mm 0 W/m2
04:50 13.5 °C 12.4 °C 1013.4 hPa Calm   3.2 km/h 93% 0 mm 4 W/m2
05:00 13.5 °C 12.4 °C 1013.4 hPa Calm   4.8 km/h 93% 0 mm 9 W/m2
05:10 13.7 °C 12.6 °C 1013.4 hPa North 3.2 km/h 6.4 km/h 93% 0 mm 15 W/m2
05:20 13.8 °C 12.3 °C 1013.4 hPa SSW 3.2 km/h 9.7 km/h 91% 0 mm 24 W/m2
05:30 13.9 °C 12.4 °C 1013.1 hPa SSW 3.2 km/h 9.7 km/h 91% 0 mm 32 W/m2
05:40 14.1 °C 12.7 °C 1013.1 hPa WSW 1.6 km/h 9.7 km/h 91% 0 mm 39 W/m2
05:50 14.1 °C 12.7 °C 1013.4 hPa WNW 1.6 km/h 8 km/h 91% 0 mm 72 W/m2
06:00 14.2 °C 12.8 °C 1013.4 hPa NNW 1.6 km/h 6.4 km/h 91% 0 mm 87 W/m2
06:10 14.3 °C 13.2 °C 1013.4 hPa NNW 1.6 km/h 4.8 km/h 93% 0 mm 107 W/m2
06:20 14.7 °C 13.6 °C 1013.4 hPa NW 1.6 km/h 4.8 km/h 93% 0 mm 133 W/m2
06:30 15.1 °C 13.7 °C 1013.4 hPa NNW 1.6 km/h 4.8 km/h 91% 0 mm 113 W/m2
06:40 15.6 °C 14.1 °C 1013.4 hPa NNE 3.2 km/h 8 km/h 91% 0 mm 181 W/m2
06:50 16.1 °C 14.4 °C 1013.8 hPa East 1.6 km/h 8 km/h 90% 0 mm 213 W/m2
07:00 16.7 °C 14.7 °C 1013.8 hPa NE 4.8 km/h 8 km/h 88% 0 mm 210 W/m2
07:10 17.3 °C 14.9 °C 1013.8 hPa Calm   8 km/h 86% 0 mm 281 W/m2
07:20 18 °C 15.4 °C 1013.8 hPa SE 1.6 km/h 6.4 km/h 85% 0 mm 301 W/m2
07:30 18.4 °C 15.7 °C 1013.8 hPa East 1.6 km/h 6.4 km/h 84% 0 mm 342 W/m2
07:40 19.2 °C 15.8 °C 1013.8 hPa ESE 3.2 km/h 11.3 km/h 81% 0 mm 185 W/m2
07:50 19.8 °C 16.2 °C 1013.8 hPa ESE 3.2 km/h 8 km/h 80% 0 mm 341 W/m2
08:00 20.3 °C 16.5 °C 1013.8 hPa ENE 3.2 km/h 9.7 km/h 79% 0 mm 277 W/m2
08:10 20.8 °C 17 °C 1013.8 hPa SSE 1.6 km/h 8 km/h 79% 0 mm 478 W/m2
08:20 21.9 °C 17.7 °C 1013.8 hPa SSW 4.8 km/h 9.7 km/h 77% 0 mm 480 W/m2
08:30 23 °C 18.1 °C 1013.8 hPa SSW 8 km/h 11.3 km/h 74% 0 mm 509 W/m2
08:40 23.8 °C 18 °C 1013.8 hPa South 11.3 km/h 16.1 km/h 70% 0 mm 393 W/m2
08:50 24.1 °C 18.3 °C 1013.8 hPa SSW 8 km/h 16.1 km/h 70% 0 mm 187 W/m2
09:00 24.2 °C 18.4 °C 1013.8 hPa SSW 9.7 km/h 11.3 km/h 70% 0 mm 396 W/m2
09:10 24.4 °C 18.3 °C 1013.8 hPa SW 9.7 km/h 16.1 km/h 69% 0 mm 141 W/m2
09:20 24.5 °C 18.4 °C 1014.1 hPa WSW 12.9 km/h 20.9 km/h 69% 0 mm 131 W/m2
09:30 24.6 °C 18.3 °C 1013.8 hPa WSW 12.9 km/h 20.9 km/h 68% 0 mm 176 W/m2
09:40 24.9 °C 18.6 °C 1013.8 hPa WSW 14.5 km/h 22.5 km/h 68% 0.25 mm 222 W/m2
09:50 25.1 °C 18.8 °C 1014.1 hPa WSW 9.7 km/h 16.1 km/h 68% 0 mm 218 W/m2
10:00 25.4 °C 19.3 °C 1014.1 hPa WSW 9.7 km/h 19.3 km/h 69% 0 mm 809 W/m2
Knjazevac, Serbia
Compliments of Weather Underground - 2 mb